PWSweather.com
Personal Weather Stations
Station Observations
TOBINNS
Auburn, Mi, Auburn, MI 48611

Auburn, MiAuburn, MI 48611

Lat: 43.603734, Lon: -84.122578

Elevation: 636

Station Type: La Crosse 2316

High Low Average
Temperature 36.3°F2.4°C 21.4°F-5.9°C 26.4°F-3.1°C
Dew Point 21.2°F-6.0°C 15.3°F-9.3°C 17.9°F-7.8°C
Winds 8.4 mph 13.5 kmh 0.9 mph 1.4 kmh 4.0 mph WSW6.4 kmh WSW
Wind Gusts 107.6 mph173.2 kmh 3.8 mph6.1 kmh 11.0 mph17.7 kmh
Humidity 83% 52% 71%
Pressure 29.86 in1011.2 mb 29.71 in1006.1 mb -
Precipitation 0.00 in0.0 mm - -
Hour Temp Dew Point Humidity Winds Wind Gusts Pressure Precip Precip Rate Daily Precip Total
12:02 AM 25.7°F-3.5°C 19.4°F-7.0°C 77% 2.9 mph NW4.7 kmh NW 11.0 mph17.7 kmh 29.72 in1006.4 mb 0.00 in0.0 mm 0.00 in/hr0.0 mm/hr 0.00 in0.0 mm
12:07 AM 25.5°F-3.6°C 19.3°F-7.1°C 77% 5.0 mph NW8.0 kmh NW 9.2 mph14.8 kmh 29.71 in1006.1 mb 0.00 in0.0 mm 0.00 in/hr0.0 mm/hr 0.00 in0.0 mm
12:12 AM 25.5°F-3.6°C 19.3°F-7.1°C 77% 4.4 mph WNW7.1 kmh WNW 9.2 mph14.8 kmh 29.72 in1006.4 mb 0.00 in0.0 mm 0.00 in/hr0.0 mm/hr 0.00 in0.0 mm
12:17 AM 25.5°F-3.6°C 19.3°F-7.1°C 77% 4.7 mph WNW7.6 kmh WNW 9.2 mph14.8 kmh 29.72 in1006.4 mb 0.00 in0.0 mm 0.00 in/hr0.0 mm/hr 0.00 in0.0 mm
12:22 AM 25.5°F-3.6°C 19.3°F-7.1°C 77% 4.2 mph WNW6.8 kmh WNW 9.2 mph14.8 kmh 29.72 in1006.4 mb 0.00 in0.0 mm 0.00 in/hr0.0 mm/hr 0.00 in0.0 mm
12:27 AM 25.5°F-3.6°C 19.3°F-7.1°C 77% 4.4 mph NW7.1 kmh NW 8.1 mph13.0 kmh 29.72 in1006.4 mb 0.00 in0.0 mm 0.00 in/hr0.0 mm/hr 0.00 in0.0 mm
12:32 AM 25.3°F-3.7°C 19.4°F-7.0°C 78% 3.9 mph NW6.3 kmh NW 8.1 mph13.0 kmh 29.73 in1006.8 mb 0.00 in0.0 mm 0.00 in/hr0.0 mm/hr 0.00 in0.0 mm
12:37 AM 25.3°F-3.7°C 19.1°F-7.2°C 77% 4.7 mph WNW7.6 kmh WNW 9.8 mph15.8 kmh 29.73 in1006.8 mb 0.00 in0.0 mm 0.00 in/hr0.0 mm/hr 0.00 in0.0 mm
12:42 AM 25.3°F-3.7°C 19.1°F-7.2°C 77% 3.1 mph WNW5.0 kmh WNW 9.8 mph15.8 kmh 29.73 in1006.8 mb 0.00 in0.0 mm 0.00 in/hr0.0 mm/hr 0.00 in0.0 mm
12:47 AM 25.3°F-3.7°C 19.1°F-7.2°C 77% 4.4 mph WNW7.1 kmh WNW 10.5 mph16.9 kmh 29.72 in1006.4 mb 0.00 in0.0 mm 0.00 in/hr0.0 mm/hr 0.00 in0.0 mm
12:52 AM 25.3°F-3.7°C 19.1°F-7.2°C 77% 3.8 mph WNW6.1 kmh WNW 10.5 mph16.9 kmh 29.72 in1006.4 mb 0.00 in0.0 mm 0.00 in/hr0.0 mm/hr 0.00 in0.0 mm
12:57 AM 25.2°F-3.8°C 19.3°F-7.1°C 78% 3.1 mph WNW5.0 kmh WNW 6.9 mph11.1 kmh 29.72 in1006.4 mb 0.00 in0.0 mm 0.00 in/hr0.0 mm/hr 0.00 in0.0 mm
01:01 AM 25.2°F-3.8°C 19.3°F-7.1°C 78% 2.7 mph WNW4.3 kmh WNW 6.9 mph11.1 kmh 29.72 in1006.4 mb 0.00 in0.0 mm 0.00 in/hr0.0 mm/hr 0.00 in0.0 mm
01:07 AM 25.0°F-3.9°C 19.1°F-7.2°C 78% 3.2 mph WNW5.1 kmh WNW 6.0 mph9.7 kmh 29.72 in1006.4 mb 0.00 in0.0 mm 0.00 in/hr0.0 mm/hr 0.00 in0.0 mm
01:12 AM 25.0°F-3.9°C 19.1°F-7.2°C 78% 3.1 mph WNW5.0 kmh WNW 6.0 mph9.7 kmh 29.72 in1006.4 mb 0.00 in0.0 mm 0.00 in/hr0.0 mm/hr 0.00 in0.0 mm
01:18 AM 25.0°F-3.9°C 19.1°F-7.2°C 78% 3.7 mph W6.0 kmh W 6.5 mph10.5 kmh 29.73 in1006.8 mb 0.00 in0.0 mm 0.00 in/hr0.0 mm/hr 0.00 in0.0 mm
01:23 AM 25.0°F-3.9°C 19.4°F-7.0°C 79% 2.7 mph W4.3 kmh W 6.5 mph10.5 kmh 29.73 in1006.8 mb 0.00 in0.0 mm 0.00 in/hr0.0 mm/hr 0.00 in0.0 mm
01:28 AM 25.0°F-3.9°C 19.4°F-7.0°C 79% 3.2 mph W5.1 kmh W 5.4 mph8.7 kmh 29.73 in1006.8 mb 0.00 in0.0 mm 0.00 in/hr0.0 mm/hr 0.00 in0.0 mm
01:33 AM 25.0°F-3.9°C 19.3°F-7.1°C 79% 3.2 mph W5.1 kmh W 6.3 mph10.1 kmh 29.73 in1006.8 mb 0.00 in0.0 mm 0.00 in/hr0.0 mm/hr 0.00 in0.0 mm
01:38 AM 24.8°F-4.0°C 19.3°F-7.1°C 79% 3.0 mph W4.8 kmh W 6.3 mph10.1 kmh 29.73 in1006.8 mb 0.00 in0.0 mm 0.00 in/hr0.0 mm/hr 0.00 in0.0 mm
01:43 AM 24.8°F-4.0°C 19.3°F-7.1°C 79% 4.8 mph W7.7 kmh W 7.4 mph11.9 kmh 29.73 in1006.8 mb 0.00 in0.0 mm 0.00 in/hr0.0 mm/hr 0.00 in0.0 mm
01:48 AM 25.0°F-3.9°C 19.4°F-7.0°C 79% 5.0 mph WSW8.0 kmh WSW 9.6 mph15.4 kmh 29.73 in1006.8 mb 0.00 in0.0 mm 0.00 in/hr0.0 mm/hr 0.00 in0.0 mm
01:53 AM 25.0°F-3.9°C 19.1°F-7.2°C 78% 2.4 mph WSW3.9 kmh WSW 9.6 mph15.4 kmh 29.74 in1007.1 mb 0.00 in0.0 mm 0.00 in/hr0.0 mm/hr 0.00 in0.0 mm
01:58 AM 25.0°F-3.9°C 19.4°F-7.0°C 79% 4.1 mph W6.6 kmh W 8.1 mph13.0 kmh 29.73 in1006.8 mb 0.00 in0.0 mm 0.00 in/hr0.0 mm/hr 0.00 in0.0 mm
02:03 AM 25.0°F-3.9°C 19.4°F-7.0°C 79% 3.6 mph WSW5.8 kmh WSW 8.1 mph13.0 kmh 29.74 in1007.1 mb 0.00 in0.0 mm 0.00 in/hr0.0 mm/hr 0.00 in0.0 mm
02:08 AM 25.0°F-3.9°C 19.4°F-7.0°C 79% 4.6 mph W7.4 kmh W 7.4 mph11.9 kmh 29.74 in1007.1 mb 0.00 in0.0 mm 0.00 in/hr0.0 mm/hr 0.00 in0.0 mm
02:13 AM 25.0°F-3.9°C 19.4°F-7.0°C 79% 4.2 mph WNW6.8 kmh WNW 7.4 mph11.9 kmh 29.74 in1007.1 mb 0.00 in0.0 mm 0.00 in/hr0.0 mm/hr 0.00 in0.0 mm
02:18 AM 24.6°F-4.1°C 19.1°F-7.2°C 79% 4.1 mph WSW6.6 kmh WSW 7.4 mph11.9 kmh 29.74 in1007.1 mb 0.00 in0.0 mm 0.00 in/hr0.0 mm/hr 0.00 in0.0 mm
02:23 AM 24.6°F-4.1°C 19.1°F-7.2°C 79% 2.7 mph W4.3 kmh W 6.7 mph10.8 kmh 29.74 in1007.1 mb 0.00 in0.0 mm 0.00 in/hr0.0 mm/hr 0.00 in0.0 mm
02:28 AM 24.4°F-4.2°C 18.9°F-7.3°C 79% 2.3 mph W3.7 kmh W 5.8 mph9.3 kmh 29.74 in1007.1 mb 0.00 in0.0 mm 0.00 in/hr0.0 mm/hr 0.00 in0.0 mm
02:33 AM 24.4°F-4.2°C 18.9°F-7.3°C 79% 5.3 mph WSW8.5 kmh WSW 8.1 mph13.0 kmh 29.74 in1007.1 mb 0.00 in0.0 mm 0.00 in/hr0.0 mm/hr 0.00 in0.0 mm
02:38 AM 24.6°F-4.1°C 19.1°F-7.2°C 79% 5.0 mph W8.0 kmh W 8.1 mph13.0 kmh 29.74 in1007.1 mb 0.00 in0.0 mm 0.00 in/hr0.0 mm/hr 0.00 in0.0 mm
02:43 AM 24.4°F-4.2°C 18.9°F-7.3°C 79% 3.4 mph W5.5 kmh W 7.6 mph12.2 kmh 29.74 in1007.1 mb 0.00 in0.0 mm 0.00 in/hr0.0 mm/hr 0.00 in0.0 mm
02:48 AM 24.4°F-4.2°C 18.9°F-7.3°C 79% 3.2 mph W5.1 kmh W 7.6 mph12.2 kmh 29.74 in1007.1 mb 0.00 in0.0 mm 0.00 in/hr0.0 mm/hr 0.00 in0.0 mm
02:53 AM 24.3°F-4.3°C 18.7°F-7.4°C 79% 2.6 mph WSW4.2 kmh WSW 4.9 mph7.9 kmh 29.75 in1007.5 mb 0.00 in0.0 mm 0.00 in/hr0.0 mm/hr 0.00 in0.0 mm
02:58 AM 24.1°F-4.4°C 18.9°F-7.3°C 80% 3.8 mph W6.1 kmh W 6.0 mph9.7 kmh 29.75 in1007.5 mb 0.00 in0.0 mm 0.00 in/hr0.0 mm/hr 0.00 in0.0 mm
03:03 AM 24.3°F-4.3°C 19.0°F-7.2°C 80% 3.2 mph W5.1 kmh W 6.0 mph9.7 kmh 29.74 in1007.1 mb 0.00 in0.0 mm 0.00 in/hr0.0 mm/hr 0.00 in0.0 mm
03:08 AM 24.4°F-4.2°C 19.2°F-7.1°C 80% 3.5 mph W5.6 kmh W 5.1 mph8.2 kmh 29.75 in1007.5 mb 0.00 in0.0 mm 0.00 in/hr0.0 mm/hr 0.00 in0.0 mm
03:13 AM 24.4°F-4.2°C 19.2°F-7.1°C 80% 3.4 mph WNW5.5 kmh WNW 5.8 mph9.3 kmh 29.75 in1007.5 mb 0.00 in0.0 mm 0.00 in/hr0.0 mm/hr 0.00 in0.0 mm
03:18 AM 24.1°F-4.4°C 18.9°F-7.3°C 80% 2.7 mph W4.3 kmh W 7.8 mph12.6 kmh 29.74 in1007.1 mb 0.00 in0.0 mm 0.00 in/hr0.0 mm/hr 0.00 in0.0 mm
03:23 AM 24.1°F-4.4°C 18.9°F-7.3°C 80% 3.9 mph W6.3 kmh W 7.8 mph12.6 kmh 29.74 in1007.1 mb 0.00 in0.0 mm 0.00 in/hr0.0 mm/hr 0.00 in0.0 mm
03:28 AM 24.1°F-4.4°C 18.9°F-7.3°C 80% 4.2 mph WNW6.8 kmh WNW 8.1 mph13.0 kmh 29.74 in1007.1 mb 0.00 in0.0 mm 0.00 in/hr0.0 mm/hr 0.00 in0.0 mm
03:33 AM 24.1°F-4.4°C 18.9°F-7.3°C 80% 3.2 mph WNW5.1 kmh WNW 8.1 mph13.0 kmh 29.74 in1007.1 mb 0.00 in0.0 mm 0.00 in/hr0.0 mm/hr 0.00 in0.0 mm
03:38 AM 23.9°F-4.5°C 18.7°F-7.4°C 80% 2.8 mph NW4.5 kmh NW 7.6 mph12.2 kmh 29.74 in1007.1 mb 0.00 in0.0 mm 0.00 in/hr0.0 mm/hr 0.00 in0.0 mm
03:43 AM 23.9°F-4.5°C 18.7°F-7.4°C 80% 3.1 mph WNW5.0 kmh WNW 7.6 mph12.2 kmh 29.74 in1007.1 mb 0.00 in0.0 mm 0.00 in/hr0.0 mm/hr 0.00 in0.0 mm
03:48 AM 23.7°F-4.6°C 18.8°F-7.3°C 81% 2.5 mph WNW4.0 kmh WNW 5.1 mph8.2 kmh 29.74 in1007.1 mb 0.00 in0.0 mm 0.00 in/hr0.0 mm/hr 0.00 in0.0 mm
03:53 AM 23.7°F-4.6°C 18.8°F-7.3°C 81% 2.4 mph WNW3.9 kmh WNW 4.5 mph7.2 kmh 29.74 in1007.1 mb 0.00 in0.0 mm 0.00 in/hr0.0 mm/hr 0.00 in0.0 mm
03:58 AM 23.7°F-4.6°C 18.8°F-7.3°C 81% 1.9 mph NW3.1 kmh NW 4.5 mph7.2 kmh 29.74 in1007.1 mb 0.00 in0.0 mm 0.00 in/hr0.0 mm/hr 0.00 in0.0 mm
04:03 AM 23.7°F-4.6°C 18.8°F-7.3°C 81% 1.3 mph W2.1 kmh W 3.8 mph6.1 kmh 29.74 in1007.1 mb 0.00 in0.0 mm 0.00 in/hr0.0 mm/hr 0.00 in0.0 mm
04:08 AM 23.7°F-4.6°C 19.0°F-7.2°C 82% 1.8 mph W2.9 kmh W 3.8 mph6.1 kmh 29.74 in1007.1 mb 0.00 in0.0 mm 0.00 in/hr0.0 mm/hr 0.00 in0.0 mm
04:13 AM 23.7°F-4.6°C 19.3°F-7.1°C 83% 2.3 mph WNW3.7 kmh WNW 3.8 mph6.1 kmh 29.75 in1007.5 mb 0.00 in0.0 mm 0.00 in/hr0.0 mm/hr 0.00 in0.0 mm
04:18 AM 23.9°F-4.5°C 19.5°F-6.9°C 83% 2.4 mph NW3.9 kmh NW 4.3 mph6.9 kmh 29.75 in1007.5 mb 0.00 in0.0 mm 0.00 in/hr0.0 mm/hr 0.00 in0.0 mm
04:23 AM 24.1°F-4.4°C 19.7°F-6.8°C 83% 2.9 mph NW4.7 kmh NW 7.8 mph12.6 kmh 29.75 in1007.5 mb 0.00 in0.0 mm 0.00 in/hr0.0 mm/hr 0.00 in0.0 mm
04:28 AM 24.1°F-4.4°C 19.7°F-6.8°C 83% 5.2 mph NW8.4 kmh NW 10.7 mph17.2 kmh 29.75 in1007.5 mb 0.00 in0.0 mm 0.00 in/hr0.0 mm/hr 0.00 in0.0 mm
04:33 AM 23.9°F-4.5°C 19.5°F-6.9°C 83% 5.5 mph NW8.9 kmh NW 10.7 mph17.2 kmh 29.75 in1007.5 mb 0.00 in0.0 mm 0.00 in/hr0.0 mm/hr 0.00 in0.0 mm
04:38 AM 23.5°F-4.7°C 18.9°F-7.3°C 82% 4.4 mph WNW7.1 kmh WNW 11.0 mph17.7 kmh 29.75 in1007.5 mb 0.00 in0.0 mm 0.00 in/hr0.0 mm/hr 0.00 in0.0 mm
04:43 AM 23.4°F-4.8°C 18.4°F-7.6°C 81% 4.7 mph WNW7.6 kmh WNW 11.0 mph17.7 kmh 29.75 in1007.5 mb 0.00 in0.0 mm 0.00 in/hr0.0 mm/hr 0.00 in0.0 mm
04:48 AM 23.2°F-4.9°C 18.0°F-7.8°C 80% 4.9 mph NW7.9 kmh NW 9.2 mph14.8 kmh 29.75 in1007.5 mb 0.00 in0.0 mm 0.00 in/hr0.0 mm/hr 0.00 in0.0 mm
04:53 AM 22.8°F-5.1°C 17.3°F-8.2°C 79% 7.2 mph NW11.6 kmh NW 10.3 mph16.6 kmh 29.76 in1007.8 mb 0.00 in0.0 mm 0.00 in/hr0.0 mm/hr 0.00 in0.0 mm
04:58 AM 22.8°F-5.1°C 17.3°F-8.2°C 79% 2.7 mph WNW4.3 kmh WNW 10.3 mph16.6 kmh 29.76 in1007.8 mb 0.00 in0.0 mm 0.00 in/hr0.0 mm/hr 0.00 in0.0 mm
05:03 AM 22.8°F-5.1°C 17.3°F-8.2°C 79% 3.0 mph NW4.8 kmh NW 8.3 mph13.4 kmh 29.76 in1007.8 mb 0.00 in0.0 mm 0.00 in/hr0.0 mm/hr 0.00 in0.0 mm
05:08 AM 22.6°F-5.2°C 17.1°F-8.3°C 79% 7.4 mph WNW11.9 kmh WNW 11.9 mph19.2 kmh 29.75 in1007.5 mb 0.00 in0.0 mm 0.00 in/hr0.0 mm/hr 0.00 in0.0 mm
05:13 AM 22.5°F-5.3°C 16.6°F-8.6°C 78% 5.8 mph NW9.3 kmh NW 11.9 mph19.2 kmh 29.76 in1007.8 mb 0.00 in0.0 mm 0.00 in/hr0.0 mm/hr 0.00 in0.0 mm
05:18 AM 22.3°F-5.4°C 16.1°F-8.8°C 77% 6.3 mph NW10.1 kmh NW 9.8 mph15.8 kmh 29.76 in1007.8 mb 0.00 in0.0 mm 0.00 in/hr0.0 mm/hr 0.00 in0.0 mm
05:23 AM 22.3°F-5.4°C 16.4°F-8.7°C 78% 2.7 mph NW4.3 kmh NW 11.9 mph19.2 kmh 29.76 in1007.8 mb 0.00 in0.0 mm 0.00 in/hr0.0 mm/hr 0.00 in0.0 mm
05:28 AM 22.1°F-5.5°C 16.3°F-8.7°C 78% 5.9 mph NW9.5 kmh NW 11.9 mph19.2 kmh 29.76 in1007.8 mb 0.00 in0.0 mm 0.00 in/hr0.0 mm/hr 0.00 in0.0 mm
05:33 AM 21.9°F-5.6°C 16.1°F-8.8°C 78% 4.9 mph WNW7.9 kmh WNW 10.1 mph16.3 kmh 29.76 in1007.8 mb 0.00 in0.0 mm 0.00 in/hr0.0 mm/hr 0.00 in0.0 mm
05:38 AM 21.9°F-5.6°C 16.1°F-8.8°C 78% 6.5 mph NW10.5 kmh NW 10.1 mph16.3 kmh 29.76 in1007.8 mb 0.00 in0.0 mm 0.00 in/hr0.0 mm/hr 0.00 in0.0 mm
05:43 AM 21.9°F-5.6°C 16.1°F-8.8°C 78% 5.2 mph NW8.4 kmh NW 10.1 mph16.3 kmh 29.76 in1007.8 mb 0.00 in0.0 mm 0.00 in/hr0.0 mm/hr 0.00 in0.0 mm
05:48 AM 21.7°F-5.7°C 15.9°F-8.9°C 78% 4.7 mph NW7.6 kmh NW 10.1 mph16.3 kmh 29.77 in1008.1 mb 0.00 in0.0 mm 0.00 in/hr0.0 mm/hr 0.00 in0.0 mm
05:53 AM 21.7°F-5.7°C 15.9°F-8.9°C 78% 4.3 mph NW6.9 kmh NW 7.4 mph11.9 kmh 29.77 in1008.1 mb 0.00 in0.0 mm 0.00 in/hr0.0 mm/hr 0.00 in0.0 mm
05:58 AM 21.7°F-5.7°C 15.9°F-8.9°C 78% 4.4 mph NW7.1 kmh NW 9.4 mph15.1 kmh 29.77 in1008.1 mb 0.00 in0.0 mm 0.00 in/hr0.0 mm/hr 0.00 in0.0 mm
06:03 AM 21.6°F-5.8°C 16.0°F-8.9°C 79% 6.7 mph NW10.8 kmh NW 13.0 mph20.9 kmh 29.77 in1008.1 mb 0.00 in0.0 mm 0.00 in/hr0.0 mm/hr 0.00 in0.0 mm
06:08 AM 21.4°F-5.9°C 15.9°F-8.9°C 79% 5.7 mph NW9.2 kmh NW 13.0 mph20.9 kmh 29.77 in1008.1 mb 0.00 in0.0 mm 0.00 in/hr0.0 mm/hr 0.00 in0.0 mm
06:13 AM 21.4°F-5.9°C 15.9°F-8.9°C 79% 3.7 mph NW6.0 kmh NW 9.8 mph15.8 kmh 29.77 in1008.1 mb 0.00 in0.0 mm 0.00 in/hr0.0 mm/hr 0.00 in0.0 mm
06:19 AM 21.4°F-5.9°C 15.9°F-8.9°C 79% 2.6 mph NW4.2 kmh NW 8.5 mph13.7 kmh 29.77 in1008.1 mb 0.00 in0.0 mm 0.00 in/hr0.0 mm/hr 0.00 in0.0 mm
06:24 AM 21.4°F-5.9°C 15.9°F-8.9°C 79% 5.2 mph NW8.4 kmh NW 8.9 mph14.3 kmh 29.77 in1008.1 mb 0.00 in0.0 mm 0.00 in/hr0.0 mm/hr 0.00 in0.0 mm
06:29 AM 21.4°F-5.9°C 15.9°F-8.9°C 79% 4.2 mph NW6.8 kmh NW 8.9 mph14.3 kmh 29.78 in1008.5 mb 0.00 in0.0 mm 0.00 in/hr0.0 mm/hr 0.00 in0.0 mm
06:34 AM 21.6°F-5.8°C 16.0°F-8.9°C 79% 4.8 mph NW7.7 kmh NW 10.7 mph17.2 kmh 29.78 in1008.5 mb 0.00 in0.0 mm 0.00 in/hr0.0 mm/hr 0.00 in0.0 mm
06:39 AM 21.6°F-5.8°C 16.0°F-8.9°C 79% 3.4 mph NW5.5 kmh NW 10.7 mph17.2 kmh 29.78 in1008.5 mb 0.00 in0.0 mm 0.00 in/hr0.0 mm/hr 0.00 in0.0 mm
06:44 AM 21.7°F-5.7°C 16.2°F-8.8°C 79% 4.1 mph NW6.6 kmh NW 10.5 mph16.9 kmh 29.78 in1008.5 mb 0.00 in0.0 mm 0.00 in/hr0.0 mm/hr 0.00 in0.0 mm
06:49 AM 21.6°F-5.8°C 16.0°F-8.9°C 79% 5.2 mph NW8.4 kmh NW 10.5 mph16.9 kmh 29.78 in1008.5 mb 0.00 in0.0 mm 0.00 in/hr0.0 mm/hr 0.00 in0.0 mm
06:54 AM 21.4°F-5.9°C 15.9°F-8.9°C 79% 4.7 mph WNW7.6 kmh WNW 13.4 mph21.6 kmh 29.78 in1008.5 mb 0.00 in0.0 mm 0.00 in/hr0.0 mm/hr 0.00 in0.0 mm
06:59 AM 21.4°F-5.9°C 15.9°F-8.9°C 79% 4.6 mph NW7.4 kmh NW 13.4 mph21.6 kmh 29.78 in1008.5 mb 0.00 in0.0 mm 0.00 in/hr0.0 mm/hr 0.00 in0.0 mm
07:04 AM 21.6°F-5.8°C 16.0°F-8.9°C 79% 4.0 mph NNW6.4 kmh NNW 7.8 mph12.6 kmh 29.78 in1008.5 mb 0.00 in0.0 mm 0.00 in/hr0.0 mm/hr 0.00 in0.0 mm
07:09 AM 21.6°F-5.8°C 16.0°F-8.9°C 79% 2.6 mph NW4.2 kmh NW 6.7 mph10.8 kmh 29.78 in1008.5 mb 0.00 in0.0 mm 0.00 in/hr0.0 mm/hr 0.00 in0.0 mm
07:14 AM 21.6°F-5.8°C 16.0°F-8.9°C 79% 4.2 mph WNW6.8 kmh WNW 8.5 mph13.7 kmh 29.78 in1008.5 mb 0.00 in0.0 mm 0.00 in/hr0.0 mm/hr 0.00 in0.0 mm
07:19 AM 21.6°F-5.8°C 16.0°F-8.9°C 79% 4.1 mph NW6.6 kmh NW 8.5 mph13.7 kmh 29.79 in1008.8 mb 0.00 in0.0 mm 0.00 in/hr0.0 mm/hr 0.00 in0.0 mm
07:24 AM 21.4°F-5.9°C 15.9°F-8.9°C 79% 4.2 mph NW6.8 kmh NW 6.7 mph10.8 kmh 29.79 in1008.8 mb 0.00 in0.0 mm 0.00 in/hr0.0 mm/hr 0.00 in0.0 mm
07:29 AM 21.4°F-5.9°C 15.9°F-8.9°C 79% 3.0 mph NW4.8 kmh NW 6.7 mph10.8 kmh 29.79 in1008.8 mb 0.00 in0.0 mm 0.00 in/hr0.0 mm/hr 0.00 in0.0 mm
07:34 AM 21.4°F-5.9°C 15.9°F-8.9°C 79% 2.6 mph W4.2 kmh W 7.4 mph11.9 kmh 29.79 in1008.8 mb 0.00 in0.0 mm 0.00 in/hr0.0 mm/hr 0.00 in0.0 mm
07:39 AM 21.6°F-5.8°C 16.0°F-8.9°C 79% 5.3 mph NW8.5 kmh NW 9.6 mph15.4 kmh 29.79 in1008.8 mb 0.00 in0.0 mm 0.00 in/hr0.0 mm/hr 0.00 in0.0 mm
07:45 AM 21.4°F-5.9°C 15.5°F-9.2°C 78% 5.1 mph WNW8.2 kmh WNW 13.6 mph21.9 kmh 29.79 in1008.8 mb 0.00 in0.0 mm 0.00 in/hr0.0 mm/hr 0.00 in0.0 mm
07:50 AM 21.4°F-5.9°C 15.5°F-9.2°C 78% 4.3 mph NW6.9 kmh NW 13.6 mph21.9 kmh 29.79 in1008.8 mb 0.00 in0.0 mm 0.00 in/hr0.0 mm/hr 0.00 in0.0 mm
07:55 AM 21.6°F-5.8°C 15.7°F-9.1°C 78% 3.1 mph NW5.0 kmh NW 8.3 mph13.4 kmh 29.80 in1009.1 mb 0.00 in0.0 mm 0.00 in/hr0.0 mm/hr 0.00 in0.0 mm
08:00 AM 21.7°F-5.7°C 15.9°F-8.9°C 78% 3.2 mph NW5.1 kmh NW 6.9 mph11.1 kmh 29.80 in1009.1 mb 0.00 in0.0 mm 0.00 in/hr0.0 mm/hr 0.00 in0.0 mm
08:05 AM 21.9°F-5.6°C 16.1°F-8.8°C 78% 5.8 mph WNW9.3 kmh WNW 9.6 mph15.4 kmh 29.80 in1009.1 mb 0.00 in0.0 mm 0.00 in/hr0.0 mm/hr 0.00 in0.0 mm
08:10 AM 22.1°F-5.5°C 16.0°F-8.9°C 77% 3.9 mph NW6.3 kmh NW 10.5 mph16.9 kmh 29.81 in1009.5 mb 0.00 in0.0 mm 0.00 in/hr0.0 mm/hr 0.00 in0.0 mm
08:15 AM 22.5°F-5.3°C 16.0°F-8.9°C 76% 5.9 mph WNW9.5 kmh WNW 10.5 mph16.9 kmh 29.81 in1009.5 mb 0.00 in0.0 mm 0.00 in/hr0.0 mm/hr 0.00 in0.0 mm
08:20 AM 22.8°F-5.1°C 16.4°F-8.7°C 76% 4.9 mph WNW7.9 kmh WNW 11.4 mph18.3 kmh 29.81 in1009.5 mb 0.00 in0.0 mm 0.00 in/hr0.0 mm/hr 0.00 in0.0 mm
08:25 AM 22.8°F-5.1°C 16.4°F-8.7°C 76% 6.1 mph NW9.8 kmh NW 11.4 mph18.3 kmh 29.81 in1009.5 mb 0.00 in0.0 mm 0.00 in/hr0.0 mm/hr 0.00 in0.0 mm
08:30 AM 22.6°F-5.2°C 16.2°F-8.8°C 76% 5.1 mph NW8.2 kmh NW 11.9 mph19.2 kmh 29.81 in1009.5 mb 0.00 in0.0 mm 0.00 in/hr0.0 mm/hr 0.00 in0.0 mm
08:35 AM 22.5°F-5.3°C 15.7°F-9.1°C 75% 4.3 mph NW6.9 kmh NW 11.9 mph19.2 kmh 29.81 in1009.5 mb 0.00 in0.0 mm 0.00 in/hr0.0 mm/hr 0.00 in0.0 mm
08:40 AM 22.6°F-5.2°C 16.2°F-8.8°C 76% 3.8 mph NW6.1 kmh NW 11.2 mph18.0 kmh 29.81 in1009.5 mb 0.00 in0.0 mm 0.00 in/hr0.0 mm/hr 0.00 in0.0 mm
08:45 AM 22.6°F-5.2°C 16.2°F-8.8°C 76% 6.8 mph NW10.9 kmh NW 10.1 mph16.3 kmh 29.81 in1009.5 mb 0.00 in0.0 mm 0.00 in/hr0.0 mm/hr 0.00 in0.0 mm
08:50 AM 22.8°F-5.1°C 16.1°F-8.8°C 75% 6.0 mph NW9.7 kmh NW 10.1 mph16.3 kmh 29.81 in1009.5 mb 0.00 in0.0 mm 0.00 in/hr0.0 mm/hr 0.00 in0.0 mm
08:55 AM 22.8°F-5.1°C 16.4°F-8.7°C 76% 4.5 mph NW7.2 kmh NW 9.8 mph15.8 kmh 29.81 in1009.5 mb 0.00 in0.0 mm 0.00 in/hr0.0 mm/hr 0.00 in0.0 mm
09:00 AM 23.0°F-5.0°C 16.6°F-8.6°C 76% 4.9 mph NW7.9 kmh NW 9.8 mph15.8 kmh 29.81 in1009.5 mb 0.00 in0.0 mm 0.00 in/hr0.0 mm/hr 0.00 in0.0 mm
09:05 AM 23.0°F-5.0°C 16.3°F-8.7°C 75% 3.7 mph WNW6.0 kmh WNW 9.8 mph15.8 kmh 29.81 in1009.5 mb 0.00 in0.0 mm 0.00 in/hr0.0 mm/hr 0.00 in0.0 mm
09:10 AM 22.8°F-5.1°C 15.8°F-9.0°C 74% 5.7 mph WNW9.2 kmh WNW 11.6 mph18.7 kmh 29.82 in1009.8 mb 0.00 in0.0 mm 0.00 in/hr0.0 mm/hr 0.00 in0.0 mm
09:15 AM 22.8°F-5.1°C 15.8°F-9.0°C 74% 4.7 mph W7.6 kmh W 11.6 mph18.7 kmh 29.81 in1009.5 mb 0.00 in0.0 mm 0.00 in/hr0.0 mm/hr 0.00 in0.0 mm
09:20 AM 22.8°F-5.1°C 15.5°F-9.2°C 73% 5.8 mph WNW9.3 kmh WNW 10.7 mph17.2 kmh 29.82 in1009.8 mb 0.00 in0.0 mm 0.00 in/hr0.0 mm/hr 0.00 in0.0 mm
09:25 AM 23.5°F-4.7°C 16.4°F-8.7°C 74% 4.2 mph NW6.8 kmh NW 10.7 mph17.2 kmh 29.81 in1009.5 mb 0.00 in0.0 mm 0.00 in/hr0.0 mm/hr 0.00 in0.0 mm
09:30 AM 23.9°F-4.5°C 16.2°F-8.8°C 72% 4.6 mph NW7.4 kmh NW 9.8 mph15.8 kmh 29.81 in1009.5 mb 0.00 in0.0 mm 0.00 in/hr0.0 mm/hr 0.00 in0.0 mm
09:35 AM 23.9°F-4.5°C 16.2°F-8.8°C 72% 5.7 mph NW9.2 kmh NW 11.9 mph19.2 kmh 29.82 in1009.8 mb 0.00 in0.0 mm 0.00 in/hr0.0 mm/hr 0.00 in0.0 mm
09:40 AM 23.4°F-4.8°C 15.3°F-9.3°C 71% 4.7 mph W7.6 kmh W 11.9 mph19.2 kmh 29.82 in1009.8 mb 0.00 in0.0 mm 0.00 in/hr0.0 mm/hr 0.00 in0.0 mm
09:45 AM 24.6°F-4.1°C 16.8°F-8.4°C 72% 2.4 mph NW3.9 kmh NW 8.5 mph13.7 kmh 29.82 in1009.8 mb 0.00 in0.0 mm 0.00 in/hr0.0 mm/hr 0.00 in0.0 mm
09:50 AM 27.7°F-2.4°C 18.9°F-7.3°C 69% 4.0 mph WNW6.4 kmh WNW 6.7 mph10.8 kmh 29.82 in1009.8 mb 0.00 in0.0 mm 0.00 in/hr0.0 mm/hr 0.00 in0.0 mm
09:55 AM 28.2°F-2.1°C 18.3°F-7.6°C 66% 6.1 mph NW9.8 kmh NW 9.8 mph15.8 kmh 29.82 in1009.8 mb 0.00 in0.0 mm 0.00 in/hr0.0 mm/hr 0.00 in0.0 mm
10:00 AM 25.5°F-3.6°C 15.7°F-9.1°C 66% 4.3 mph WNW6.9 kmh WNW 9.8 mph15.8 kmh 29.82 in1009.8 mb 0.00 in0.0 mm 0.00 in/hr0.0 mm/hr 0.00 in0.0 mm
10:05 AM 26.1°F-3.3°C 16.5°F-8.6°C 67% 3.9 mph NW6.3 kmh NW 8.5 mph13.7 kmh 29.82 in1009.8 mb 0.00 in0.0 mm 0.00 in/hr0.0 mm/hr 0.00 in0.0 mm
10:10 AM 27.5°F-2.5°C 17.6°F-8.0°C 66% 3.6 mph NW5.8 kmh NW 8.5 mph13.7 kmh 29.82 in1009.8 mb 0.00 in0.0 mm 0.00 in/hr0.0 mm/hr 0.00 in0.0 mm
10:15 AM 28.0°F-2.2°C 17.8°F-7.9°C 65% 2.9 mph NNE4.7 kmh NNE 8.5 mph13.7 kmh 29.81 in1009.5 mb 0.00 in0.0 mm 0.00 in/hr0.0 mm/hr 0.00 in0.0 mm
10:20 AM 28.2°F-2.1°C 18.0°F-7.8°C 65% 4.3 mph NW6.9 kmh NW 8.9 mph14.3 kmh 29.81 in1009.5 mb 0.00 in0.0 mm 0.00 in/hr0.0 mm/hr 0.00 in0.0 mm
10:25 AM 28.0°F-2.2°C 17.8°F-7.9°C 65% 5.5 mph NW8.9 kmh NW 8.9 mph14.3 kmh 29.81 in1009.5 mb 0.00 in0.0 mm 0.00 in/hr0.0 mm/hr 0.00 in0.0 mm
10:30 AM 28.2°F-2.1°C 17.6°F-8.0°C 64% 1.9 mph NW3.1 kmh NW 14.1 mph22.7 kmh 29.81 in1009.5 mb 0.00 in0.0 mm 0.00 in/hr0.0 mm/hr 0.00 in0.0 mm
10:35 AM 28.8°F-1.8°C 18.1°F-7.7°C 64% 3.2 mph NW5.1 kmh NW 28.4 mph45.7 kmh 29.81 in1009.5 mb 0.00 in0.0 mm 0.00 in/hr0.0 mm/hr 0.00 in0.0 mm
10:40 AM 28.9°F-1.7°C 18.3°F-7.6°C 64% 4.6 mph NW7.4 kmh NW 28.4 mph45.7 kmh 29.81 in1009.5 mb 0.00 in0.0 mm 0.00 in/hr0.0 mm/hr 0.00 in0.0 mm
10:45 AM 29.3°F-1.5°C 18.2°F-7.7°C 63% 1.5 mph NW2.4 kmh NW 7.8 mph12.6 kmh 29.82 in1009.8 mb 0.00 in0.0 mm 0.00 in/hr0.0 mm/hr 0.00 in0.0 mm
10:50 AM 29.1°F-1.6°C 17.7°F-7.9°C 62% 2.5 mph NNE4.0 kmh NNE 4.5 mph7.2 kmh 29.81 in1009.5 mb 0.00 in0.0 mm 0.00 in/hr0.0 mm/hr 0.00 in0.0 mm
10:55 AM 29.1°F-1.6°C 18.2°F-7.7°C 62% 5.2 mph NW8.4 kmh NW 7.8 mph12.6 kmh 29.81 in1009.5 mb 0.00 in0.0 mm 0.00 in/hr0.0 mm/hr 0.00 in0.0 mm
11:00 AM 29.1°F-1.6°C 18.1°F-7.7°C 63% 6.4 mph NW10.3 kmh NW 28.4 mph45.7 kmh 29.82 in1009.8 mb 0.00 in0.0 mm 0.00 in/hr0.0 mm/hr 0.00 in0.0 mm
11:05 AM 29.5°F-1.4°C 18.4°F-7.6°C 63% 8.4 mph S13.5 kmh S 28.4 mph45.7 kmh 29.82 in1009.8 mb 0.00 in0.0 mm 0.00 in/hr0.0 mm/hr 0.00 in0.0 mm
11:10 AM 29.3°F-1.5°C 17.9°F-7.8°C 62% 8.2 mph N13.2 kmh N 57.5 mph92.5 kmh 29.82 in1009.8 mb 0.00 in0.0 mm 0.00 in/hr0.0 mm/hr 0.00 in0.0 mm
11:15 AM 29.1°F-1.6°C 18.1°F-7.7°C 63% 3.4 mph W5.5 kmh W 57.5 mph92.5 kmh 29.81 in1009.5 mb 0.00 in0.0 mm 0.00 in/hr0.0 mm/hr 0.00 in0.0 mm
11:20 AM 28.0°F-2.2°C 16.3°F-8.7°C 62% 4.0 mph W6.4 kmh W 11.9 mph19.2 kmh 29.82 in1009.8 mb 0.00 in0.0 mm 0.00 in/hr0.0 mm/hr 0.00 in0.0 mm
11:25 AM 28.2°F-2.1°C 16.9°F-8.4°C 62% 2.5 mph NW4.0 kmh NW 11.9 mph19.2 kmh 29.82 in1009.8 mb 0.00 in0.0 mm 0.00 in/hr0.0 mm/hr 0.00 in0.0 mm
11:30 AM 29.3°F-1.5°C 17.9°F-7.8°C 62% 3.3 mph NW5.3 kmh NW 5.8 mph9.3 kmh 29.82 in1009.8 mb 0.00 in0.0 mm 0.00 in/hr0.0 mm/hr 0.00 in0.0 mm
11:35 AM 29.8°F-1.2°C 18.4°F-7.6°C 62% 3.3 mph NW5.3 kmh NW 8.9 mph14.3 kmh 29.82 in1009.8 mb 0.00 in0.0 mm 0.00 in/hr0.0 mm/hr 0.00 in0.0 mm
11:40 AM 29.3°F-1.5°C 17.5°F-8.1°C 61% 1.2 mph N1.9 kmh N 8.9 mph14.3 kmh 29.82 in1009.8 mb 0.00 in0.0 mm 0.00 in/hr0.0 mm/hr 0.00 in0.0 mm
11:45 AM 29.8°F-1.2°C 18.4°F-7.6°C 62% 3.3 mph NW5.3 kmh NW 14.1 mph22.7 kmh 29.82 in1009.8 mb 0.00 in0.0 mm 0.00 in/hr0.0 mm/hr 0.00 in0.0 mm
11:50 AM 29.8°F-1.2°C 18.4°F-7.6°C 62% 3.2 mph NW5.1 kmh NW 14.1 mph22.7 kmh 29.82 in1009.8 mb 0.00 in0.0 mm 0.00 in/hr0.0 mm/hr 0.00 in0.0 mm
11:55 AM 30.0°F-1.1°C 17.8°F-7.9°C 60% 3.9 mph NNW6.3 kmh NNW 8.9 mph14.3 kmh 29.82 in1009.8 mb 0.00 in0.0 mm 0.00 in/hr0.0 mm/hr 0.00 in0.0 mm
12:00 PM 30.0°F-1.1°C 17.8°F-7.9°C 60% 1.8 mph NW2.9 kmh NW 5.4 mph8.7 kmh 29.81 in1009.5 mb 0.00 in0.0 mm 0.00 in/hr0.0 mm/hr 0.00 in0.0 mm
12:05 PM 29.1°F-1.6°C 17.3°F-8.2°C 61% 3.4 mph NNE5.5 kmh NNE 57.5 mph92.5 kmh 29.81 in1009.5 mb 0.00 in0.0 mm 0.00 in/hr0.0 mm/hr 0.00 in0.0 mm
12:10 PM 30.0°F-1.1°C 18.5°F-7.5°C 62% 3.4 mph NW5.5 kmh NW 57.5 mph92.5 kmh 29.82 in1009.8 mb 0.00 in0.0 mm 0.00 in/hr0.0 mm/hr 0.00 in0.0 mm
12:15 PM 30.7°F-0.7°C 19.2°F-7.1°C 62% 4.9 mph WSW7.9 kmh WSW 28.4 mph45.7 kmh 29.82 in1009.8 mb 0.00 in0.0 mm 0.00 in/hr0.0 mm/hr 0.00 in0.0 mm
12:20 PM 30.9°F-0.6°C 19.0°F-7.2°C 61% 3.6 mph NW5.8 kmh NW 28.4 mph45.7 kmh 29.81 in1009.5 mb 0.00 in0.0 mm 0.00 in/hr0.0 mm/hr 0.00 in0.0 mm
12:25 PM 30.9°F-0.6°C 19.0°F-7.2°C 61% 2.6 mph NNW4.2 kmh NNW 8.9 mph14.3 kmh 29.81 in1009.5 mb 0.00 in0.0 mm 0.00 in/hr0.0 mm/hr 0.00 in0.0 mm
12:30 PM 31.3°F-0.4°C 19.0°F-7.2°C 60% 4.1 mph NW6.6 kmh NW 6.9 mph11.1 kmh 29.81 in1009.5 mb 0.00 in0.0 mm 0.00 in/hr0.0 mm/hr 0.00 in0.0 mm
12:35 PM 30.9°F-0.6°C 18.7°F-7.4°C 60% 1.9 mph NNE3.1 kmh NNE 6.9 mph11.1 kmh 29.81 in1009.5 mb 0.00 in0.0 mm 0.00 in/hr0.0 mm/hr 0.00 in0.0 mm
12:40 PM 31.3°F-0.4°C 19.0°F-7.2°C 60% 2.3 mph N3.7 kmh N 6.0 mph9.7 kmh 29.82 in1009.8 mb 0.00 in0.0 mm 0.00 in/hr0.0 mm/hr 0.00 in0.0 mm
12:45 PM 32.2°F0.1°C 19.9°F-6.7°C 61% 1.5 mph SSW2.4 kmh SSW 6.0 mph9.7 kmh 29.82 in1009.8 mb 0.00 in0.0 mm 0.00 in/hr0.0 mm/hr 0.00 in0.0 mm
12:50 PM 32.2°F0.1°C 19.9°F-6.7°C 60% 2.3 mph NW3.7 kmh NW 107.6 mph173.2 kmh 29.81 in1009.5 mb 0.00 in0.0 mm 0.00 in/hr0.0 mm/hr 0.00 in0.0 mm
12:55 PM 32.0°F0.0°C 19.3°F-7.1°C 59% 2.9 mph NW4.7 kmh NW 107.6 mph173.2 kmh 29.81 in1009.5 mb 0.00 in0.0 mm 0.00 in/hr0.0 mm/hr 0.00 in0.0 mm
01:00 PM 31.8°F-0.1°C 18.7°F-7.4°C 58% 2.4 mph NW3.9 kmh NW 6.3 mph10.1 kmh 29.81 in1009.5 mb 0.00 in0.0 mm 0.00 in/hr0.0 mm/hr 0.00 in0.0 mm
01:05 PM 32.2°F0.1°C 19.1°F-7.2°C 58% 3.2 mph NW5.1 kmh NW 6.3 mph10.1 kmh 29.81 in1009.5 mb 0.00 in0.0 mm 0.00 in/hr0.0 mm/hr 0.00 in0.0 mm
01:10 PM 32.4°F0.2°C 19.2°F-7.1°C 58% 0.9 mph NNW1.4 kmh NNW 5.1 mph8.2 kmh 29.81 in1009.5 mb 0.00 in0.0 mm 0.00 in/hr0.0 mm/hr 0.00 in0.0 mm
01:15 PM 32.2°F0.1°C 19.1°F-7.2°C 58% 3.7 mph NW6.0 kmh NW 9.8 mph15.8 kmh 29.81 in1009.5 mb 0.00 in0.0 mm 0.00 in/hr0.0 mm/hr 0.00 in0.0 mm
01:20 PM 32.4°F0.2°C 19.2°F-7.1°C 58% 2.5 mph NW4.0 kmh NW 9.8 mph15.8 kmh 29.81 in1009.5 mb 0.00 in0.0 mm 0.00 in/hr0.0 mm/hr 0.00 in0.0 mm
01:25 PM 33.6°F0.9°C 20.4°F-6.4°C 58% 4.3 mph NW6.9 kmh NW 7.4 mph11.9 kmh 29.81 in1009.5 mb 0.00 in0.0 mm 0.00 in/hr0.0 mm/hr 0.00 in0.0 mm
01:30 PM 33.1°F0.6°C 19.0°F-7.2°C 56% 3.7 mph WSW6.0 kmh WSW 7.4 mph11.9 kmh 29.81 in1009.5 mb 0.00 in0.0 mm 0.00 in/hr0.0 mm/hr 0.00 in0.0 mm
01:35 PM 33.6°F0.9°C 20.4°F-6.4°C 58% 3.3 mph NNW5.3 kmh NNW 6.7 mph10.8 kmh 29.81 in1009.5 mb 0.00 in0.0 mm 0.00 in/hr0.0 mm/hr 0.00 in0.0 mm
01:40 PM 34.2°F1.2°C 20.4°F-6.4°C 57% 4.7 mph NW7.6 kmh NW 8.9 mph14.3 kmh 29.81 in1009.5 mb 0.00 in0.0 mm 0.00 in/hr0.0 mm/hr 0.00 in0.0 mm
01:45 PM 34.2°F1.2°C 19.6°F-6.9°C 55% 2.3 mph NNW3.7 kmh NNW 8.9 mph14.3 kmh 29.81 in1009.5 mb 0.00 in0.0 mm 0.00 in/hr0.0 mm/hr 0.00 in0.0 mm
01:50 PM 33.1°F0.6°C 19.0°F-7.2°C 56% 3.7 mph NW6.0 kmh NW 8.5 mph13.7 kmh 29.81 in1009.5 mb 0.00 in0.0 mm 0.00 in/hr0.0 mm/hr 0.00 in0.0 mm
01:55 PM 31.8°F-0.1°C 18.7°F-7.4°C 58% 2.6 mph NW4.2 kmh NW 7.6 mph12.2 kmh 29.81 in1009.5 mb 0.00 in0.0 mm 0.00 in/hr0.0 mm/hr 0.00 in0.0 mm
02:00 PM 31.6°F-0.2°C 18.1°F-7.7°C 57% 4.2 mph NW6.8 kmh NW 8.9 mph14.3 kmh 29.81 in1009.5 mb 0.00 in0.0 mm 0.00 in/hr0.0 mm/hr 0.00 in0.0 mm
02:06 PM 31.3°F-0.4°C 18.2°F-7.7°C 58% 2.5 mph NE4.0 kmh NE 8.9 mph14.3 kmh 29.81 in1009.5 mb 0.00 in0.0 mm 0.00 in/hr0.0 mm/hr 0.00 in0.0 mm
02:11 PM 32.7°F0.4°C 20.0°F-6.7°C 59% 4.4 mph NNW7.1 kmh NNW 7.6 mph12.2 kmh 29.81 in1009.5 mb 0.00 in0.0 mm 0.00 in/hr0.0 mm/hr 0.00 in0.0 mm
02:15 PM 33.1°F0.6°C 19.0°F-7.2°C 56% 3.0 mph WNW4.8 kmh WNW 8.1 mph13.0 kmh 29.81 in1009.5 mb 0.00 in0.0 mm 0.00 in/hr0.0 mm/hr 0.00 in0.0 mm
02:21 PM 32.5°F0.3°C 18.5°F-7.5°C 56% 5.6 mph NW9.0 kmh NW 9.6 mph15.4 kmh 29.81 in1009.5 mb 0.00 in0.0 mm 0.00 in/hr0.0 mm/hr 0.00 in0.0 mm
02:25 PM 31.6°F-0.2°C 18.1°F-7.7°C 57% 3.3 mph NW5.3 kmh NW 9.6 mph15.4 kmh 29.80 in1009.1 mb 0.00 in0.0 mm 0.00 in/hr0.0 mm/hr 0.00 in0.0 mm
02:31 PM 32.9°F0.5°C 19.7°F-6.8°C 58% 2.0 mph NW3.2 kmh NW 8.1 mph13.0 kmh 29.80 in1009.1 mb 0.00 in0.0 mm 0.00 in/hr0.0 mm/hr 0.00 in0.0 mm
02:36 PM 32.9°F0.5°C 18.4°F-7.6°C 55% 2.5 mph N4.0 kmh N 4.3 mph6.9 kmh 29.80 in1009.1 mb 0.00 in0.0 mm 0.00 in/hr0.0 mm/hr 0.00 in0.0 mm
02:40 PM 32.9°F0.5°C 18.0°F-7.8°C 54% 2.6 mph NW4.2 kmh NW 6.0 mph9.7 kmh 29.80 in1009.1 mb 0.00 in0.0 mm 0.00 in/hr0.0 mm/hr 0.00 in0.0 mm
02:46 PM 34.0°F1.1°C 19.4°F-7.0°C 55% 2.8 mph N4.5 kmh N 6.0 mph9.7 kmh 29.80 in1009.1 mb 0.00 in0.0 mm 0.00 in/hr0.0 mm/hr 0.00 in0.0 mm
02:51 PM 35.4°F1.9°C 20.4°F-6.4°C 54% 5.5 mph NW8.9 kmh NW 7.4 mph11.9 kmh 29.80 in1009.1 mb 0.00 in0.0 mm 0.00 in/hr0.0 mm/hr 0.00 in0.0 mm
02:56 PM 36.3°F2.4°C 21.2°F-6.0°C 54% 2.4 mph NW3.9 kmh NW 7.4 mph11.9 kmh 29.80 in1009.1 mb 0.00 in0.0 mm 0.00 in/hr0.0 mm/hr 0.00 in0.0 mm
03:01 PM 35.8°F2.1°C 20.3°F-6.5°C 53% 2.7 mph NW4.3 kmh NW 7.6 mph12.2 kmh 29.80 in1009.1 mb 0.00 in0.0 mm 0.00 in/hr0.0 mm/hr 0.00 in0.0 mm
03:20 PM 32.9°F0.5°C 18.4°F-7.6°C 55% 2.7 mph NW4.3 kmh NW 14.1 mph22.7 kmh 29.81 in1009.5 mb 0.00 in0.0 mm 0.00 in/hr0.0 mm/hr 0.00 in0.0 mm
03:30 PM 30.7°F-0.7°C 17.7°F-7.9°C 58% 3.3 mph N5.3 kmh N 8.7 mph14.0 kmh 29.81 in1009.5 mb 0.00 in0.0 mm 0.00 in/hr0.0 mm/hr 0.00 in0.0 mm
03:31 PM 36.3°F2.4°C 20.4°F-6.4°C 52% 3.2 mph NW5.1 kmh NW 7.8 mph12.6 kmh 29.81 in1009.5 mb 0.00 in0.0 mm 0.00 in/hr0.0 mm/hr 0.00 in0.0 mm
03:36 PM 29.7°F-1.3°C 17.8°F-7.9°C 61% 4.4 mph NE7.1 kmh NE 9.2 mph14.8 kmh 29.81 in1009.5 mb 0.00 in0.0 mm 0.00 in/hr0.0 mm/hr 0.00 in0.0 mm
03:41 PM 29.3°F-1.5°C 18.2°F-7.7°C 63% 2.6 mph NE4.2 kmh NE 9.2 mph14.8 kmh 29.81 in1009.5 mb 0.00 in0.0 mm 0.00 in/hr0.0 mm/hr 0.00 in0.0 mm
03:46 PM 29.1°F-1.6°C 18.1°F-7.7°C 63% 3.2 mph NE5.1 kmh NE 8.9 mph14.3 kmh 29.81 in1009.5 mb 0.00 in0.0 mm 0.00 in/hr0.0 mm/hr 0.00 in0.0 mm
03:51 PM 28.8°F-1.8°C 17.7°F-7.9°C 63% 2.9 mph NNE4.7 kmh NNE 7.6 mph12.2 kmh 29.81 in1009.5 mb 0.00 in0.0 mm 0.00 in/hr0.0 mm/hr 0.00 in0.0 mm
03:56 PM 28.6°F-1.9°C 17.6°F-8.0°C 63% 2.8 mph NE4.5 kmh NE 7.4 mph11.9 kmh 29.81 in1009.5 mb 0.00 in0.0 mm 0.00 in/hr0.0 mm/hr 0.00 in0.0 mm
04:01 PM 28.9°F-1.7°C 18.3°F-7.6°C 64% 3.3 mph NE5.3 kmh NE 8.3 mph13.4 kmh 29.81 in1009.5 mb 0.00 in0.0 mm 0.00 in/hr0.0 mm/hr 0.00 in0.0 mm
04:06 PM 28.6°F-1.9°C 17.9°F-7.8°C 64% 4.8 mph NE7.7 kmh NE 11.0 mph17.7 kmh 29.81 in1009.5 mb 0.00 in0.0 mm 0.00 in/hr0.0 mm/hr 0.00 in0.0 mm
04:11 PM 28.6°F-1.9°C 18.3°F-7.6°C 65% 2.0 mph NE3.2 kmh NE 11.0 mph17.7 kmh 29.81 in1009.5 mb 0.00 in0.0 mm 0.00 in/hr0.0 mm/hr 0.00 in0.0 mm
04:16 PM 28.6°F-1.9°C 18.3°F-7.6°C 65% 3.7 mph NE6.0 kmh NE 8.1 mph13.0 kmh 29.81 in1009.5 mb 0.00 in0.0 mm 0.00 in/hr0.0 mm/hr 0.00 in0.0 mm
04:21 PM 28.2°F-2.1°C 18.0°F-7.8°C 65% 3.4 mph NE5.5 kmh NE 7.6 mph12.2 kmh 29.81 in1009.5 mb 0.00 in0.0 mm 0.00 in/hr0.0 mm/hr 0.00 in0.0 mm
04:26 PM 28.2°F-2.1°C 18.0°F-7.8°C 65% 2.6 mph NE4.2 kmh NE 8.3 mph13.4 kmh 29.81 in1009.5 mb 0.00 in0.0 mm 0.00 in/hr0.0 mm/hr 0.00 in0.0 mm
04:31 PM 28.2°F-2.1°C 18.0°F-7.8°C 65% 3.4 mph ENE5.5 kmh ENE 8.3 mph13.4 kmh 29.81 in1009.5 mb 0.00 in0.0 mm 0.00 in/hr0.0 mm/hr 0.00 in0.0 mm
04:36 PM 28.0°F-2.2°C 17.8°F-7.9°C 65% 2.1 mph ENE3.4 kmh ENE 6.7 mph10.8 kmh 29.82 in1009.8 mb 0.00 in0.0 mm 0.00 in/hr0.0 mm/hr 0.00 in0.0 mm
04:41 PM 27.9°F-2.3°C 18.0°F-7.8°C 66% 2.8 mph NE4.5 kmh NE 6.7 mph10.8 kmh 29.82 in1009.8 mb 0.00 in0.0 mm 0.00 in/hr0.0 mm/hr 0.00 in0.0 mm
04:46 PM 27.7°F-2.4°C 17.8°F-7.9°C 66% 2.3 mph NE3.7 kmh NE 5.4 mph8.7 kmh 29.82 in1009.8 mb 0.00 in0.0 mm 0.00 in/hr0.0 mm/hr 0.00 in0.0 mm
04:51 PM 27.7°F-2.4°C 18.1°F-7.7°C 67% 2.7 mph NE4.3 kmh NE 6.9 mph11.1 kmh 29.83 in1010.2 mb 0.00 in0.0 mm 0.00 in/hr0.0 mm/hr 0.00 in0.0 mm
04:56 PM 27.5°F-2.5°C 18.0°F-7.8°C 67% 3.6 mph NE5.8 kmh NE 6.9 mph11.1 kmh 29.82 in1009.8 mb 0.00 in0.0 mm 0.00 in/hr0.0 mm/hr 0.00 in0.0 mm
05:01 PM 27.3°F-2.6°C 17.8°F-7.9°C 67% 2.8 mph NE4.5 kmh NE 6.0 mph9.7 kmh 29.83 in1010.2 mb 0.00 in0.0 mm 0.00 in/hr0.0 mm/hr 0.00 in0.0 mm
05:06 PM 27.1°F-2.7°C 17.8°F-7.9°C 67% 2.0 mph NE3.2 kmh NE 6.3 mph10.1 kmh 29.83 in1010.2 mb 0.00 in0.0 mm 0.00 in/hr0.0 mm/hr 0.00 in0.0 mm
05:11 PM 27.1°F-2.7°C 17.6°F-8.0°C 67% 2.6 mph NE4.2 kmh NE 6.3 mph10.1 kmh 29.83 in1010.2 mb 0.00 in0.0 mm 0.00 in/hr0.0 mm/hr 0.00 in0.0 mm
05:16 PM 27.1°F-2.7°C 17.6°F-8.0°C 67% 2.8 mph NE4.5 kmh NE 7.4 mph11.9 kmh 29.83 in1010.2 mb 0.00 in0.0 mm 0.00 in/hr0.0 mm/hr 0.00 in0.0 mm
05:21 PM 27.0°F-2.8°C 17.4°F-8.1°C 67% 2.9 mph NE4.7 kmh NE 7.4 mph11.9 kmh 29.83 in1010.2 mb 0.00 in0.0 mm 0.00 in/hr0.0 mm/hr 0.00 in0.0 mm
05:26 PM 27.0°F-2.8°C 17.8°F-7.9°C 68% 2.8 mph NE4.5 kmh NE 6.9 mph11.1 kmh 29.83 in1010.2 mb 0.00 in0.0 mm 0.00 in/hr0.0 mm/hr 0.00 in0.0 mm
05:31 PM 27.0°F-2.8°C 17.8°F-7.9°C 68% 3.0 mph NE4.8 kmh NE 6.0 mph9.7 kmh 29.83 in1010.2 mb 0.00 in0.0 mm 0.00 in/hr0.0 mm/hr 0.00 in0.0 mm
05:36 PM 27.0°F-2.8°C 17.8°F-7.9°C 68% 2.4 mph ENE3.9 kmh ENE 6.5 mph10.5 kmh 29.84 in1010.5 mb 0.00 in0.0 mm 0.00 in/hr0.0 mm/hr 0.00 in0.0 mm
05:41 PM 26.8°F-2.9°C 17.6°F-8.0°C 68% 2.6 mph ENE4.2 kmh ENE 6.5 mph10.5 kmh 29.83 in1010.2 mb 0.00 in0.0 mm 0.00 in/hr0.0 mm/hr 0.00 in0.0 mm
05:46 PM 26.4°F-3.1°C 17.2°F-8.2°C 68% 2.7 mph NE4.3 kmh NE 6.9 mph11.1 kmh 29.84 in1010.5 mb 0.00 in0.0 mm 0.00 in/hr0.0 mm/hr 0.00 in0.0 mm
05:51 PM 26.4°F-3.1°C 17.6°F-8.0°C 69% 4.5 mph NE7.2 kmh NE 8.1 mph13.0 kmh 29.84 in1010.5 mb 0.00 in0.0 mm 0.00 in/hr0.0 mm/hr 0.00 in0.0 mm
05:56 PM 26.4°F-3.1°C 17.6°F-8.0°C 69% 2.6 mph NE4.2 kmh NE 8.1 mph13.0 kmh 29.84 in1010.5 mb 0.00 in0.0 mm 0.00 in/hr0.0 mm/hr 0.00 in0.0 mm
06:01 PM 26.2°F-3.2°C 17.1°F-8.3°C 68% 2.4 mph NE3.9 kmh NE 5.8 mph9.3 kmh 29.85 in1010.8 mb 0.00 in0.0 mm 0.00 in/hr0.0 mm/hr 0.00 in0.0 mm
06:06 PM 26.2°F-3.2°C 17.1°F-8.3°C 68% 3.4 mph NE5.5 kmh NE 6.3 mph10.1 kmh 29.85 in1010.8 mb 0.00 in0.0 mm 0.00 in/hr0.0 mm/hr 0.00 in0.0 mm
06:11 PM 26.1°F-3.3°C 16.9°F-8.4°C 68% 2.7 mph NE4.3 kmh NE 6.3 mph10.1 kmh 29.85 in1010.8 mb 0.00 in0.0 mm 0.00 in/hr0.0 mm/hr 0.00 in0.0 mm
06:16 PM 25.9°F-3.4°C 17.1°F-8.3°C 69% 2.9 mph ENE4.7 kmh ENE 6.3 mph10.1 kmh 29.84 in1010.5 mb 0.00 in0.0 mm 0.00 in/hr0.0 mm/hr 0.00 in0.0 mm
06:21 PM 26.1°F-3.3°C 17.2°F-8.2°C 69% 2.4 mph ENE3.9 kmh ENE 4.7 mph7.6 kmh 29.85 in1010.8 mb 0.00 in0.0 mm 0.00 in/hr0.0 mm/hr 0.00 in0.0 mm
06:26 PM 25.9°F-3.4°C 16.7°F-8.5°C 68% 1.5 mph ESE2.4 kmh ESE 4.7 mph7.6 kmh 29.85 in1010.8 mb 0.00 in0.0 mm 0.00 in/hr0.0 mm/hr 0.00 in0.0 mm
06:31 PM 25.7°F-3.5°C 16.5°F-8.6°C 68% 3.2 mph NE5.1 kmh NE 7.8 mph12.6 kmh 29.85 in1010.8 mb 0.00 in0.0 mm 0.00 in/hr0.0 mm/hr 0.00 in0.0 mm
06:36 PM 25.7°F-3.5°C 16.9°F-8.4°C 69% 2.6 mph ENE4.2 kmh ENE 7.8 mph12.6 kmh 29.86 in1011.2 mb 0.00 in0.0 mm 0.00 in/hr0.0 mm/hr 0.00 in0.0 mm
06:41 PM 25.7°F-3.5°C 16.9°F-8.4°C 69% 2.1 mph ENE3.4 kmh ENE 4.3 mph6.9 kmh 29.86 in1011.2 mb 0.00 in0.0 mm 0.00 in/hr0.0 mm/hr 0.00 in0.0 mm
06:46 PM 25.7°F-3.5°C 16.9°F-8.4°C 69% 1.6 mph NE2.6 kmh NE 3.6 mph5.8 kmh 29.85 in1010.8 mb 0.00 in0.0 mm 0.00 in/hr0.0 mm/hr 0.00 in0.0 mm
06:51 PM 25.5°F-3.6°C 17.1°F-8.3°C 70% 1.4 mph NNE2.3 kmh NNE 6.7 mph10.8 kmh 29.86 in1011.2 mb 0.00 in0.0 mm 0.00 in/hr0.0 mm/hr 0.00 in0.0 mm
06:56 PM 25.5°F-3.6°C 17.1°F-8.3°C 70% 2.2 mph NE3.5 kmh NE 6.7 mph10.8 kmh 29.86 in1011.2 mb 0.00 in0.0 mm 0.00 in/hr0.0 mm/hr 0.00 in0.0 mm
07:01 PM 25.5°F-3.6°C 17.1°F-8.3°C 70% 2.8 mph ENE4.5 kmh ENE 5.4 mph8.7 kmh 29.86 in1011.2 mb 0.00 in0.0 mm 0.00 in/hr0.0 mm/hr 0.00 in0.0 mm
07:06 PM 25.3°F-3.7°C 16.9°F-8.4°C 70% 2.1 mph ENE3.4 kmh ENE 5.8 mph9.3 kmh 29.86 in1011.2 mb 0.00 in0.0 mm 0.00 in/hr0.0 mm/hr 0.00 in0.0 mm
07:11 PM 25.2°F-3.8°C 16.7°F-8.5°C 70% 4.1 mph NE6.6 kmh NE 6.0 mph9.7 kmh 29.86 in1011.2 mb 0.00 in0.0 mm 0.00 in/hr0.0 mm/hr 0.00 in0.0 mm
07:16 PM 25.2°F-3.8°C 17.0°F-8.3°C 71% 3.2 mph NNE5.1 kmh NNE 6.7 mph10.8 kmh 29.86 in1011.2 mb 0.00 in0.0 mm 0.00 in/hr0.0 mm/hr 0.00 in0.0 mm
07:21 PM 25.0°F-3.9°C 17.0°F-8.3°C 71% 3.6 mph NE5.8 kmh NE 6.7 mph10.8 kmh 29.87 in1011.5 mb 0.00 in0.0 mm 0.00 in/hr0.0 mm/hr 0.00 in0.0 mm
07:26 PM 25.0°F-3.9°C 17.1°F-8.3°C 72% 2.7 mph NE4.3 kmh NE 6.7 mph10.8 kmh 29.87 in1011.5 mb 0.00 in0.0 mm 0.00 in/hr0.0 mm/hr 0.00 in0.0 mm
07:31 PM 25.0°F-3.9°C 17.1°F-8.3°C 72% 1.4 mph NE2.3 kmh NE 5.4 mph8.7 kmh 29.88 in1011.9 mb 0.00 in0.0 mm 0.00 in/hr0.0 mm/hr 0.00 in0.0 mm
07:36 PM 25.0°F-3.9°C 17.1°F-8.3°C 72% 1.8 mph NE2.9 kmh NE 6.5 mph10.5 kmh 29.88 in1011.9 mb 0.00 in0.0 mm 0.00 in/hr0.0 mm/hr 0.00 in0.0 mm
07:41 PM 25.0°F-3.9°C 17.1°F-8.3°C 72% 2.4 mph NNE3.9 kmh NNE 6.5 mph10.5 kmh 29.88 in1011.9 mb 0.00 in0.0 mm 0.00 in/hr0.0 mm/hr 0.00 in0.0 mm
07:46 PM 24.8°F-4.0°C 17.0°F-8.3°C 72% 2.4 mph NE3.9 kmh NE 6.0 mph9.7 kmh 29.88 in1011.9 mb 0.00 in0.0 mm 0.00 in/hr0.0 mm/hr 0.00 in0.0 mm
07:51 PM 24.6°F-4.1°C 17.1°F-8.3°C 73% 2.6 mph NNE4.2 kmh NNE 6.0 mph9.7 kmh 29.88 in1011.9 mb 0.00 in0.0 mm 0.00 in/hr0.0 mm/hr 0.00 in0.0 mm
07:56 PM 24.6°F-4.1°C 17.1°F-8.3°C 73% 2.1 mph NE3.4 kmh NE 5.1 mph8.2 kmh 29.88 in1011.9 mb 0.00 in0.0 mm 0.00 in/hr0.0 mm/hr 0.00 in0.0 mm
08:01 PM 24.6°F-4.1°C 17.1°F-8.3°C 73% 1.8 mph NE2.9 kmh NE 5.8 mph9.3 kmh 29.88 in1011.9 mb 0.00 in0.0 mm 0.00 in/hr0.0 mm/hr 0.00 in0.0 mm
08:06 PM 24.6°F-4.1°C 17.1°F-8.3°C 73% 2.7 mph NNE4.3 kmh NNE 5.8 mph9.3 kmh 29.88 in1011.9 mb 0.00 in0.0 mm 0.00 in/hr0.0 mm/hr 0.00 in0.0 mm
08:11 PM 24.4°F-4.2°C 17.3°F-8.2°C 74% 2.4 mph NE3.9 kmh NE 5.4 mph8.7 kmh 29.88 in1011.9 mb 0.00 in0.0 mm 0.00 in/hr0.0 mm/hr 0.00 in0.0 mm
08:16 PM 24.6°F-4.1°C 17.5°F-8.1°C 74% 1.3 mph NE2.1 kmh NE 5.4 mph8.7 kmh 29.88 in1011.9 mb 0.00 in0.0 mm 0.00 in/hr0.0 mm/hr 0.00 in0.0 mm
08:21 PM 24.6°F-4.1°C 17.5°F-8.1°C 74% 1.6 mph NE2.6 kmh NE 3.4 mph5.5 kmh 29.89 in1012.2 mb 0.00 in0.0 mm 0.00 in/hr0.0 mm/hr 0.00 in0.0 mm
08:26 PM 24.4°F-4.2°C 17.6°F-8.0°C 75% 2.4 mph NE3.9 kmh NE 5.8 mph9.3 kmh 29.88 in1011.9 mb 0.00 in0.0 mm 0.00 in/hr0.0 mm/hr 0.00 in0.0 mm
08:32 PM 24.4°F-4.2°C 17.6°F-8.0°C 75% 3.3 mph NNE5.3 kmh NNE 5.8 mph9.3 kmh 29.89 in1012.2 mb 0.00 in0.0 mm 0.00 in/hr0.0 mm/hr 0.00 in0.0 mm
08:37 PM 24.3°F-4.3°C 17.8°F-7.9°C 76% 2.0 mph N3.2 kmh N 5.1 mph8.2 kmh 29.89 in1012.2 mb 0.00 in0.0 mm 0.00 in/hr0.0 mm/hr 0.00 in0.0 mm
08:42 PM 24.1°F-4.4°C 17.6°F-8.0°C 76% 2.0 mph NNE3.2 kmh NNE 4.3 mph6.9 kmh 29.89 in1012.2 mb 0.00 in0.0 mm 0.00 in/hr0.0 mm/hr 0.00 in0.0 mm
08:47 PM 24.1°F-4.4°C 17.9°F-7.8°C 77% 1.8 mph NE2.9 kmh NE 5.4 mph8.7 kmh 29.89 in1012.2 mb 0.00 in0.0 mm 0.00 in/hr0.0 mm/hr 0.00 in0.0 mm
08:52 PM 24.1°F-4.4°C 17.9°F-7.8°C 77% 1.1 mph NNW1.8 kmh NNW 5.4 mph8.7 kmh 29.89 in1012.2 mb 0.00 in0.0 mm 0.00 in/hr0.0 mm/hr 0.00 in0.0 mm
08:56 PM 24.1°F-4.4°C 17.9°F-7.8°C 77% 1.8 mph NE2.9 kmh NE 4.7 mph7.6 kmh 29.89 in1012.2 mb 0.00 in0.0 mm 0.00 in/hr0.0 mm/hr 0.00 in0.0 mm
09:02 PM 24.1°F-4.4°C 18.2°F-7.7°C 78% 1.7 mph N2.7 kmh N 4.7 mph7.6 kmh 29.90 in1012.5 mb 0.00 in0.0 mm 0.00 in/hr0.0 mm/hr 0.00 in0.0 mm
09:07 PM 23.9°F-4.5°C 18.0°F-7.8°C 78% 3.8 mph NNE6.1 kmh NNE 6.7 mph10.8 kmh 29.90 in1012.5 mb 0.00 in0.0 mm 0.00 in/hr0.0 mm/hr 0.00 in0.0 mm
09:12 PM 23.9°F-4.5°C 18.0°F-7.8°C 78% 0.9 mph 1.4 kmh 6.7 mph10.8 kmh 29.90 in1012.5 mb 0.00 in0.0 mm 0.00 in/hr0.0 mm/hr 0.00 in0.0 mm
09:17 PM 23.9°F-4.5°C 18.0°F-7.8°C 78% 1.4 mph NE2.3 kmh NE 4.5 mph7.2 kmh 29.90 in1012.5 mb 0.00 in0.0 mm 0.00 in/hr0.0 mm/hr 0.00 in0.0 mm
09:22 PM 23.9°F-4.5°C 18.4°F-7.6°C 79% 2.9 mph NNE4.7 kmh NNE 6.0 mph9.7 kmh 29.90 in1012.5 mb 0.00 in0.0 mm 0.00 in/hr0.0 mm/hr 0.00 in0.0 mm
09:27 PM 23.7°F-4.6°C 18.2°F-7.7°C 79% 1.7 mph NNE2.7 kmh NNE 6.7 mph10.8 kmh 29.90 in1012.5 mb 0.00 in0.0 mm 0.00 in/hr0.0 mm/hr 0.00 in0.0 mm
09:32 PM 23.7°F-4.6°C 18.2°F-7.7°C 79% 2.0 mph N3.2 kmh N 6.7 mph10.8 kmh 29.90 in1012.5 mb 0.00 in0.0 mm 0.00 in/hr0.0 mm/hr 0.00 in0.0 mm
09:37 PM 23.7°F-4.6°C 18.2°F-7.7°C 79% 1.7 mph NE2.7 kmh NE 5.8 mph9.3 kmh 29.91 in1012.9 mb 0.00 in0.0 mm 0.00 in/hr0.0 mm/hr 0.00 in0.0 mm
09:42 PM 23.7°F-4.6°C 18.2°F-7.7°C 79% 2.0 mph NW3.2 kmh NW 3.6 mph5.8 kmh 29.91 in1012.9 mb 0.00 in0.0 mm 0.00 in/hr0.0 mm/hr 0.00 in0.0 mm
09:47 PM 23.7°F-4.6°C 18.2°F-7.7°C 79% 1.6 mph N2.6 kmh N 2.5 mph4.0 kmh 29.91 in1012.9 mb 0.00 in0.0 mm 0.00 in/hr0.0 mm/hr 0.00 in0.0 mm
09:52 PM 23.7°F-4.6°C 18.5°F-7.5°C 80% 1.4 mph N2.3 kmh N 2.2 mph3.5 kmh 29.91 in1012.9 mb 0.00 in0.0 mm 0.00 in/hr0.0 mm/hr 0.00 in0.0 mm
09:57 PM 23.7°F-4.6°C 18.5°F-7.5°C 80% 0.9 mph NW1.4 kmh NW 2.0 mph3.2 kmh 29.91 in1012.9 mb 0.00 in0.0 mm 0.00 in/hr0.0 mm/hr 0.00 in0.0 mm
10:02 PM 23.7°F-4.6°C 18.5°F-7.5°C 80% 2.0 mph 3.2 kmh 2.0 mph3.2 kmh 29.91 in1012.9 mb 0.00 in0.0 mm 0.00 in/hr0.0 mm/hr 0.00 in0.0 mm
10:07 PM 23.7°F-4.6°C 18.5°F-7.5°C 80% Calm Calm 2.9 mph4.7 kmh 29.91 in1012.9 mb 0.00 in0.0 mm 0.00 in/hr0.0 mm/hr 0.00 in0.0 mm
10:12 PM 23.7°F-4.6°C 18.5°F-7.5°C 80% 0.9 mph NE1.4 kmh NE 3.1 mph5.0 kmh 29.91 in1012.9 mb 0.00 in0.0 mm 0.00 in/hr0.0 mm/hr 0.00 in0.0 mm
10:17 PM 23.7°F-4.6°C 18.5°F-7.5°C 80% Calm Calm 3.1 mph5.0 kmh 29.92 in1013.2 mb 0.00 in0.0 mm 0.00 in/hr0.0 mm/hr 0.00 in0.0 mm
10:22 PM 23.7°F-4.6°C 18.5°F-7.5°C 80% 0.7 mph W1.1 kmh W 2.2 mph3.5 kmh 29.92 in1013.2 mb 0.00 in0.0 mm 0.00 in/hr0.0 mm/hr 0.00 in0.0 mm
10:27 PM 23.7°F-4.6°C 18.5°F-7.5°C 80% Calm Calm 1.8 mph2.9 kmh 29.92 in1013.2 mb 0.00 in0.0 mm 0.00 in/hr0.0 mm/hr 0.00 in0.0 mm
10:32 PM 23.7°F-4.6°C 18.8°F-7.3°C 81% Calm Calm 1.8 mph2.9 kmh 29.92 in1013.2 mb 0.00 in0.0 mm 0.00 in/hr0.0 mm/hr 0.00 in0.0 mm
10:37 PM 23.7°F-4.6°C 18.8°F-7.3°C 81% 1.6 mph NNE2.6 kmh NNE 3.1 mph5.0 kmh 29.93 in1013.5 mb 0.00 in0.0 mm 0.00 in/hr0.0 mm/hr 0.00 in0.0 mm
10:42 PM 23.7°F-4.6°C 18.8°F-7.3°C 81% 1.4 mph NE2.3 kmh NE 3.1 mph5.0 kmh 29.93 in1013.5 mb 0.00 in0.0 mm 0.00 in/hr0.0 mm/hr 0.00 in0.0 mm
10:47 PM 23.5°F-4.7°C 18.6°F-7.4°C 81% 2.5 mph NNE4.0 kmh NNE 3.8 mph6.1 kmh 29.93 in1013.5 mb 0.00 in0.0 mm 0.00 in/hr0.0 mm/hr 0.00 in0.0 mm
10:52 PM 23.5°F-4.7°C 18.6°F-7.4°C 81% 2.3 mph NNE3.7 kmh NNE 4.7 mph7.6 kmh 29.93 in1013.5 mb 0.00 in0.0 mm 0.00 in/hr0.0 mm/hr 0.00 in0.0 mm
10:57 PM 23.4°F-4.8°C 18.4°F-7.6°C 81% 2.2 mph NNE3.5 kmh NNE 4.7 mph7.6 kmh 29.93 in1013.5 mb 0.00 in0.0 mm 0.00 in/hr0.0 mm/hr 0.00 in0.0 mm
11:02 PM 23.4°F-4.8°C 18.7°F-7.4°C 82% 1.5 mph N2.4 kmh N 3.8 mph6.1 kmh 29.93 in1013.5 mb 0.00 in0.0 mm 0.00 in/hr0.0 mm/hr 0.00 in0.0 mm
11:07 PM 23.4°F-4.8°C 18.7°F-7.4°C 82% 1.1 mph W1.8 kmh W 2.2 mph3.5 kmh 29.92 in1013.2 mb 0.00 in0.0 mm 0.00 in/hr0.0 mm/hr 0.00 in0.0 mm
11:12 PM 23.4°F-4.8°C 18.7°F-7.4°C 82% 1.5 mph NW2.4 kmh NW 2.0 mph3.2 kmh 29.92 in1013.2 mb 0.00 in0.0 mm 0.00 in/hr0.0 mm/hr 0.00 in0.0 mm
11:17 PM 23.4°F-4.8°C 18.7°F-7.4°C 82% Calm Calm 2.0 mph3.2 kmh 29.93 in1013.5 mb 0.00 in0.0 mm 0.00 in/hr0.0 mm/hr 0.00 in0.0 mm
11:22 PM 23.4°F-4.8°C 18.7°F-7.4°C 82% 1.7 mph NE2.7 kmh NE 2.9 mph4.7 kmh 29.93 in1013.5 mb 0.00 in0.0 mm 0.00 in/hr0.0 mm/hr 0.00 in0.0 mm
11:27 PM 23.2°F-4.9°C 18.5°F-7.5°C 82% 1.4 mph N2.3 kmh N 4.0 mph6.4 kmh 29.93 in1013.5 mb 0.00 in0.0 mm 0.00 in/hr0.0 mm/hr 0.00 in0.0 mm
11:32 PM 23.2°F-4.9°C 18.5°F-7.5°C 82% 3.7 mph NNE6.0 kmh NNE 5.8 mph9.3 kmh 29.93 in1013.5 mb 0.00 in0.0 mm 0.00 in/hr0.0 mm/hr 0.00 in0.0 mm
11:37 PM 23.0°F-5.0°C 18.3°F-7.6°C 82% 1.7 mph NNE2.7 kmh NNE 5.8 mph9.3 kmh 29.92 in1013.2 mb 0.00 in0.0 mm 0.00 in/hr0.0 mm/hr 0.00 in0.0 mm
11:42 PM 23.0°F-5.0°C 18.6°F-7.4°C 83% Calm Calm 4.5 mph7.2 kmh 29.92 in1013.2 mb 0.00 in0.0 mm 0.00 in/hr0.0 mm/hr 0.00 in0.0 mm
11:47 PM 22.8°F-5.1°C 18.4°F-7.6°C 83% 2.6 mph NNE4.2 kmh NNE 4.3 mph6.9 kmh 29.93 in1013.5 mb 0.00 in0.0 mm 0.00 in/hr0.0 mm/hr 0.00 in0.0 mm
11:52 PM 22.8°F-5.1°C 18.4°F-7.6°C 83% 1.7 mph NE2.7 kmh NE 4.3 mph6.9 kmh 29.93 in1013.5 mb 0.00 in0.0 mm 0.00 in/hr0.0 mm/hr 0.00 in0.0 mm
11:57 PM 22.8°F-5.1°C 18.4°F-7.6°C 83% 2.0 mph NNE3.2 kmh NNE 3.8 mph6.1 kmh 29.93 in1013.5 mb 0.00 in0.0 mm 0.00 in/hr0.0 mm/hr 0.00 in0.0 mm